Time;durP1;ratioP1;P1;durP2;ratioP2;P2;SDS_P1;SDS_P2;PMS_P1;PMS_P2;Temp;Humidity;BMP_temperature;BMP_pressure;BME280_temperature;BME280_humidity;BME280_pressure;Samples;Min_cycle;Max_cycle;Signal;HPM_P1;HPM_P2
2022/12/01 00:02:22;;;;;;;17.33;12.60;;;;;;;;;;5052779;28;20099;-80
2022/12/01 00:04:48;;;;;;;14.82;10.70;;;;;;;;;;5032326;28;20376;-80
2022/12/01 00:07:14;;;;;;;18.35;12.07;;;;;;;;;;5040507;28;20636;-80
2022/12/01 00:12:25;;;;;;;14.95;11.00;;;;;;;;;;5053523;28;20044;-80
2022/12/01 00:14:59;;;;;;;17.08;11.63;;;;;;;;;;5053494;28;20033;-80
2022/12/01 00:17:26;;;;;;;16.85;11.45;;;;;;;;;;5053467;28;20021;-80
2022/12/01 00:19:52;;;;;;;18.13;12.60;;;;;;;;;;5034948;28;20053;-80
2022/12/01 00:22:18;;;;;;;17.40;11.85;;;;;;;;;;5053068;28;20460;-80
2022/12/01 00:24:46;;;;;;;17.45;11.70;;;;;;;;;;5053240;28;20037;-80
2022/12/01 00:27:12;;;;;;;17.00;11.52;;;;;;;;;;5024433;28;20033;-80
2022/12/01 00:29:38;;;;;;;18.48;12.25;;;;;;;;;;5034020;28;20055;-80
2022/12/01 00:32:04;;;;;;;20.05;11.13;;;;;;;;;;5052275;28;20017;-80
2022/12/01 00:34:30;;;;;;;17.23;11.30;;;;;;;;;;5031156;28;20037;-79
2022/12/01 00:36:56;;;;;;;16.55;11.27;;;;;;;;;;5033277;28;20036;-80
2022/12/01 00:39:22;;;;;;;17.77;11.52;;;;;;;;;;5043030;28;20089;-80
2022/12/01 00:41:48;;;;;;;18.73;11.40;;;;;;;;;;5035523;28;20032;-80
2022/12/01 00:44:14;;;;;;;20.30;13.77;;;;;;;;;;5052968;28;20037;-80
2022/12/01 00:46:40;;;;;;;19.02;12.63;;;;;;;;;;5053693;28;20021;-80
2022/12/01 00:49:06;;;;;;;17.90;12.25;;;;;;;;;;5035452;28;20024;-80
2022/12/01 00:51:32;;;;;;;20.67;11.32;;;;;;;;;;5053951;28;20020;-80
2022/12/01 00:53:58;;;;;;;18.75;12.43;;;;;;;;;;5051956;28;20368;-80
2022/12/01 00:56:24;;;;;;;17.67;11.88;;;;;;;;;;5032211;28;20511;-80
2022/12/01 00:58:50;;;;;;;16.50;11.55;;;;;;;;;;5053258;28;20519;-80
2022/12/01 01:01:16;;;;;;;20.33;12.55;;;;;;;;;;5035897;28;20116;-80
2022/12/01 01:03:42;;;;;;;17.17;11.48;;;;;;;;;;5053927;28;20096;-80
2022/12/01 01:06:09;;;;;;;19.17;12.27;;;;;;;;;;5035485;28;20452;-80
2022/12/01 01:08:35;;;;;;;18.80;12.80;;;;;;;;;;5035314;28;20106;-80
2022/12/01 01:11:02;;;;;;;21.08;13.07;;;;;;;;;;5053110;28;20033;-80
2022/12/01 01:13:28;;;;;;;18.05;12.25;;;;;;;;;;5035363;28;20067;-80
2022/12/01 01:16:02;;;;;;;16.80;11.25;;;;;;;;;;5052816;28;20032;-80
2022/12/01 01:18:28;;;;;;;19.25;11.95;;;;;;;;;;5053394;28;20036;-80
2022/12/01 01:20:55;;;;;;;17.58;11.75;;;;;;;;;;5052685;28;20376;-80
2022/12/01 01:23:21;;;;;;;20.35;12.27;;;;;;;;;;5035179;28;20043;-80
2022/12/01 01:25:47;;;;;;;17.08;11.35;;;;;;;;;;5052190;28;20021;-80
2022/12/01 01:28:13;;;;;;;21.00;12.95;;;;;;;;;;5053523;28;20444;-80
2022/12/01 01:30:39;;;;;;;18.20;11.38;;;;;;;;;;5026779;28;20026;-80
2022/12/01 01:33:05;;;;;;;18.58;12.52;;;;;;;;;;5018286;28;20483;-79
2022/12/01 01:35:31;;;;;;;17.08;10.82;;;;;;;;;;5039073;28;20033;-80
2022/12/01 01:37:57;;;;;;;21.30;11.73;;;;;;;;;;5035708;28;20029;-80
2022/12/01 01:40:23;;;;;;;17.83;11.60;;;;;;;;;;5052474;28;20040;-80
2022/12/01 01:42:49;;;;;;;18.17;12.57;;;;;;;;;;5052560;28;20033;-80
2022/12/01 01:45:21;;;;;;;18.13;11.77;;;;;;;;;;5051627;28;20421;-80
2022/12/01 01:47:48;;;;;;;20.92;12.60;;;;;;;;;;5049691;28;20037;-79
2022/12/01 01:50:15;;;;;;;21.45;12.45;;;;;;;;;;5030254;28;20075;-80
2022/12/01 01:52:44;;;;;;;19.15;12.73;;;;;;;;;;5050687;28;20087;-80
2022/12/01 01:55:11;;;;;;;18.48;12.15;;;;;;;;;;5045094;28;20033;-80
2022/12/01 01:57:38;;;;;;;17.35;12.32;;;;;;;;;;5050900;28;20135;-80
2022/12/01 02:00:14;;;;;;;18.20;12.85;;;;;;;;;;5040496;28;20029;-80
2022/12/01 02:02:44;;;;;;;19.73;12.32;;;;;;;;;;5050957;28;20510;-80
2022/12/01 02:05:30;;;;;;;19.27;13.23;;;;;;;;;;5051286;28;20107;-80
2022/12/01 02:07:57;;;;;;;20.15;12.40;;;;;;;;;;5051102;28;20065;-80
2022/12/01 02:10:49;;;;;;;18.33;12.40;;;;;;;;;;5051369;28;20071;-79
2022/12/01 02:13:15;;;;;;;20.60;12.80;;;;;;;;;;5046021;28;20041;-79
2022/12/01 02:15:50;;;;;;;19.80;12.07;;;;;;;;;;5033102;28;20048;-80
2022/12/01 02:18:16;;;;;;;21.20;12.80;;;;;;;;;;5051047;28;20037;-80
2022/12/01 02:20:53;;;;;;;21.67;14.38;;;;;;;;;;5051470;28;20513;-80
2022/12/01 02:23:38;;;;;;;19.92;12.75;;;;;;;;;;5051477;28;20037;-80
2022/12/01 02:26:30;;;;;;;21.88;14.25;;;;;;;;;;5042937;28;20493;-80
2022/12/01 02:29:02;;;;;;;21.13;13.57;;;;;;;;;;5045635;28;20035;-80
2022/12/01 02:31:36;;;;;;;19.83;12.93;;;;;;;;;;5050938;28;20056;-80
2022/12/01 02:34:09;;;;;;;21.40;13.73;;;;;;;;;;5050998;28;20535;-79
2022/12/01 02:36:45;;;;;;;23.90;14.35;;;;;;;;;;5032420;28;20040;-80
2022/12/01 02:39:22;;;;;;;23.65;14.70;;;;;;;;;;5045044;28;20044;-80
2022/12/01 02:41:53;;;;;;;25.48;15.93;;;;;;;;;;5040841;28;20664;-79
2022/12/01 02:44:23;;;;;;;26.50;17.75;;;;;;;;;;5030286;28;20144;-80
2022/12/01 02:46:52;;;;;;;25.23;15.02;;;;;;;;;;5039079;28;20049;-80
2022/12/01 02:49:25;;;;;;;24.20;15.98;;;;;;;;;;5050408;28;20391;-80
2022/12/01 02:51:52;;;;;;;24.58;15.65;;;;;;;;;;5034724;28;20025;-80
2022/12/01 02:54:18;;;;;;;23.50;15.48;;;;;;;;;;5049974;28;20040;-80
2022/12/01 02:56:44;;;;;;;26.08;15.90;;;;;;;;;;5054748;28;20843;-79
2022/12/01 02:59:11;;;;;;;22.42;15.00;;;;;;;;;;5053583;28;20049;-80
2022/12/01 03:01:37;;;;;;;25.58;15.98;;;;;;;;;;5054249;28;20765;-80
2022/12/01 03:04:18;;;;;;;28.88;16.08;;;;;;;;;;5048710;28;20063;-80
2022/12/01 03:06:48;;;;;;;26.30;16.85;;;;;;;;;;5033779;28;20025;-80
2022/12/01 03:09:27;;;;;;;28.25;16.73;;;;;;;;;;5050746;28;20135;-80
2022/12/01 03:12:02;;;;;;;26.75;16.25;;;;;;;;;;5053224;28;20100;-80
2022/12/01 03:14:46;;;;;;;26.58;15.32;;;;;;;;;;5054435;28;20036;-80
2022/12/01 03:17:18;;;;;;;29.23;15.75;;;;;;;;;;5053896;28;20079;-80
2022/12/01 03:19:49;;;;;;;25.67;16.30;;;;;;;;;;5026122;28;20041;-79
2022/12/01 03:22:23;;;;;;;24.70;14.30;;;;;;;;;;5043010;28;20065;-79
2022/12/01 03:24:50;;;;;;;26.00;14.75;;;;;;;;;;5053876;28;20029;-79
2022/12/01 03:27:19;;;;;;;22.00;13.95;;;;;;;;;;5033965;28;20868;-80
2022/12/01 03:29:48;;;;;;;22.58;14.43;;;;;;;;;;5040347;28;20037;-80
2022/12/01 03:32:19;;;;;;;24.58;14.60;;;;;;;;;;5035804;28;20024;-79
2022/12/01 03:34:48;;;;;;;22.77;12.95;;;;;;;;;;5051476;28;20037;-80
2022/12/01 03:37:24;;;;;;;20.45;12.68;;;;;;;;;;5053898;28;20363;-80
2022/12/01 03:39:53;;;;;;;21.60;12.82;;;;;;;;;;5050021;28;20098;-80
2022/12/01 03:42:34;;;;;;;22.73;14.50;;;;;;;;;;5050418;28;20499;-80
2022/12/01 03:45:04;;;;;;;22.85;14.35;;;;;;;;;;5047528;28;20061;-79
2022/12/01 03:47:31;;;;;;;23.52;13.60;;;;;;;;;;5035411;28;20040;-80
2022/12/01 03:49:59;;;;;;;23.65;12.60;;;;;;;;;;5053050;28;20033;-80
2022/12/01 03:52:27;;;;;;;18.95;12.98;;;;;;;;;;5053708;28;20033;-80
2022/12/01 03:55:12;;;;;;;20.00;11.88;;;;;;;;;;5052297;28;20079;-79
2022/12/01 03:57:41;;;;;;;20.40;13.20;;;;;;;;;;5045779;28;20076;-80
2022/12/01 04:00:10;;;;;;;19.13;11.65;;;;;;;;;;5026610;28;20021;-80
2022/12/01 04:02:36;;;;;;;26.23;13.18;;;;;;;;;;5031919;28;20079;-80
2022/12/01 04:05:03;;;;;;;19.27;12.20;;;;;;;;;;5036490;28;20480;-79
2022/12/01 04:07:29;;;;;;;21.88;14.07;;;;;;;;;;5023997;28;20029;-80
2022/12/01 04:09:56;;;;;;;21.70;12.07;;;;;;;;;;5049960;28;20042;-80
2022/12/01 04:12:28;;;;;;;21.33;13.90;;;;;;;;;;5049399;28;20022;-79
2022/12/01 04:14:54;;;;;;;20.35;12.50;;;;;;;;;;5032414;28;20044;-80
2022/12/01 04:17:20;;;;;;;23.92;12.30;;;;;;;;;;5043520;28;20030;-79
2022/12/01 04:19:46;;;;;;;20.40;13.95;;;;;;;;;;5044789;28;20041;-80
2022/12/01 04:22:12;;;;;;;21.48;14.43;;;;;;;;;;5038087;28;20033;-80
2022/12/01 04:24:38;;;;;;;19.85;12.10;;;;;;;;;;5041557;28;20491;-80
2022/12/01 04:27:04;;;;;;;19.83;13.60;;;;;;;;;;5033948;28;20040;-79
2022/12/01 04:29:30;;;;;;;23.17;13.88;;;;;;;;;;5033893;28;20040;-80
2022/12/01 04:31:56;;;;;;;22.45;14.57;;;;;;;;;;5052505;28;20423;-80
2022/12/01 04:34:22;;;;;;;21.92;13.52;;;;;;;;;;5052441;28;20037;-80
2022/12/01 04:36:48;;;;;;;46.45;27.05;;;;;;;;;;5053130;28;20499;-80
2022/12/01 04:39:14;;;;;;;26.33;16.75;;;;;;;;;;5034597;28;20033;-80
2022/12/01 04:41:40;;;;;;;24.58;14.50;;;;;;;;;;5039629;28;20024;-79
2022/12/01 04:44:06;;;;;;;26.50;15.20;;;;;;;;;;5033909;28;20109;-80
2022/12/01 04:46:32;;;;;;;21.58;13.68;;;;;;;;;;5052655;28;20060;-80
2022/12/01 04:48:58;;;;;;;22.33;15.20;;;;;;;;;;5052234;28;20056;-80
2022/12/01 04:51:24;;;;;;;25.00;14.98;;;;;;;;;;5041915;28;20033;-80
2022/12/01 04:53:50;;;;;;;25.85;15.10;;;;;;;;;;5034079;28;20036;-80
2022/12/01 04:56:16;;;;;;;25.27;16.10;;;;;;;;;;5049188;28;20029;-80
2022/12/01 04:58:42;;;;;;;22.70;13.85;;;;;;;;;;5049706;28;20048;-80
2022/12/01 05:01:11;;;;;;;24.35;15.90;;;;;;;;;;5033966;28;20068;-79
2022/12/01 05:03:41;;;;;;;26.10;15.68;;;;;;;;;;5034969;28;20037;-80
2022/12/01 05:06:08;;;;;;;25.27;15.68;;;;;;;;;;5052239;28;20025;-80
2022/12/01 05:08:34;;;;;;;24.67;14.98;;;;;;;;;;5040764;28;20132;-80
2022/12/01 05:11:00;;;;;;;23.17;14.25;;;;;;;;;;5034266;28;20036;-80
2022/12/01 05:13:26;;;;;;;22.48;14.45;;;;;;;;;;5052447;28;20542;-80
2022/12/01 05:15:53;;;;;;;24.92;14.93;;;;;;;;;;5051630;28;20124;-80
2022/12/01 05:18:19;;;;;;;21.88;15.38;;;;;;;;;;5036783;28;20061;-80
2022/12/01 05:20:57;;;;;;;25.05;15.70;;;;;;;;;;5042100;28;20391;-80
2022/12/01 05:23:24;;;;;;;22.75;14.32;;;;;;;;;;5040465;28;20141;-80
2022/12/01 05:25:50;;;;;;;24.70;14.25;;;;;;;;;;5030991;28;20143;-79
2022/12/01 05:28:16;;;;;;;27.15;16.42;;;;;;;;;;5019290;28;20061;-79
2022/12/01 05:30:42;;;;;;;25.90;15.95;;;;;;;;;;5047759;28;20067;-80
2022/12/01 05:33:08;;;;;;;25.20;16.25;;;;;;;;;;5051313;28;20033;-80
2022/12/01 05:35:34;;;;;;;26.55;14.88;;;;;;;;;;5033806;28;20375;-80
2022/12/01 05:38:00;;;;;;;23.35;14.63;;;;;;;;;;5033214;28;20155;-80
2022/12/01 05:40:26;;;;;;;26.25;16.50;;;;;;;;;;5030231;28;20403;-80
2022/12/01 05:42:52;;;;;;;24.52;15.82;;;;;;;;;;5049961;28;20025;-80
2022/12/01 05:45:18;;;;;;;26.25;15.50;;;;;;;;;;5051272;28;20036;-80
2022/12/01 05:47:44;;;;;;;26.58;17.67;;;;;;;;;;5032538;28;20448;-80
2022/12/01 05:50:10;;;;;;;26.70;16.02;;;;;;;;;;5050614;28;20065;-80
2022/12/01 05:52:36;;;;;;;23.67;15.00;;;;;;;;;;5029062;28;20035;-80
2022/12/01 05:55:04;;;;;;;24.33;14.98;;;;;;;;;;5033145;28;20361;-80
2022/12/01 05:57:30;;;;;;;25.80;15.60;;;;;;;;;;5041728;28;20033;-80
2022/12/01 05:59:56;;;;;;;23.85;15.68;;;;;;;;;;5033273;28;20026;-80
2022/12/01 06:02:22;;;;;;;31.27;18.50;;;;;;;;;;5048355;28;20040;-80
2022/12/01 06:04:48;;;;;;;25.27;15.73;;;;;;;;;;5033206;28;20502;-80
2022/12/01 06:07:14;;;;;;;27.35;17.75;;;;;;;;;;5027947;28;20034;-79
2022/12/01 06:09:40;;;;;;;27.88;17.05;;;;;;;;;;5050678;28;20033;-80
2022/12/01 06:12:06;;;;;;;33.03;17.67;;;;;;;;;;5051325;28;20060;-80
2022/12/01 06:14:32;;;;;;;29.73;17.65;;;;;;;;;;5051649;28;20072;-80
2022/12/01 06:16:58;;;;;;;28.63;18.25;;;;;;;;;;5032276;28;20060;-80
2022/12/01 06:19:24;;;;;;;29.17;17.60;;;;;;;;;;5048513;28;20039;-80
2022/12/01 06:21:50;;;;;;;27.27;17.33;;;;;;;;;;5033859;28;20100;-79
2022/12/01 06:24:16;;;;;;;28.65;17.83;;;;;;;;;;5053054;28;20414;-80
2022/12/01 06:26:42;;;;;;;26.83;16.42;;;;;;;;;;5047470;28;20034;-80
2022/12/01 06:29:09;;;;;;;25.70;17.23;;;;;;;;;;5034170;28;20436;-78
2022/12/01 06:31:35;;;;;;;27.67;17.08;;;;;;;;;;5050706;28;20075;-78
2022/12/01 06:34:01;;;;;;;27.48;16.33;;;;;;;;;;5050037;28;20031;-78
2022/12/01 06:36:27;;;;;;;26.20;16.80;;;;;;;;;;5052829;28;20582;-78
2022/12/01 06:38:53;;;;;;;26.73;17.63;;;;;;;;;;5053473;28;20082;-79
2022/12/01 06:41:19;;;;;;;29.58;18.02;;;;;;;;;;5033961;28;20025;-80
2022/12/01 06:43:45;;;;;;;31.83;19.13;;;;;;;;;;5055012;28;20033;-80
2022/12/01 06:46:11;;;;;;;31.13;18.83;;;;;;;;;;5047827;28;20038;-80
2022/12/01 06:48:37;;;;;;;32.45;19.80;;;;;;;;;;5047454;28;20146;-80
2022/12/01 06:51:04;;;;;;;34.10;20.65;;;;;;;;;;5052904;28;20041;-80
2022/12/01 06:53:30;;;;;;;32.15;19.73;;;;;;;;;;5048033;28;20064;-80
2022/12/01 06:56:00;;;;;;;27.95;17.75;;;;;;;;;;5055332;28;20033;-80
2022/12/01 06:58:26;;;;;;;29.85;17.30;;;;;;;;;;5054481;28;20041;-80
2022/12/01 07:00:51;;;;;;;26.90;16.88;;;;;;;;;;5025717;28;20045;-79
2022/12/01 07:03:17;;;;;;;26.33;15.50;;;;;;;;;;5033989;28;20464;-79
2022/12/01 07:05:43;;;;;;;25.85;15.73;;;;;;;;;;5034136;28;20030;-80
2022/12/01 07:08:11;;;;;;;28.02;16.95;;;;;;;;;;5029817;28;20402;-79
2022/12/01 07:10:37;;;;;;;30.73;18.10;;;;;;;;;;5055368;28;20075;-80
2022/12/01 07:13:03;;;;;;;35.15;21.83;;;;;;;;;;5035327;28;20021;-79
2022/12/01 07:15:29;;;;;;;36.88;20.23;;;;;;;;;;5038898;28;20021;-79
2022/12/01 07:17:55;;;;;;;40.58;19.27;;;;;;;;;;5032162;28;20383;-79
2022/12/01 07:20:21;;;;;;;29.75;18.40;;;;;;;;;;5054911;28;20045;-79
2022/12/01 07:22:47;;;;;;;30.23;17.15;;;;;;;;;;5037165;28;20879;-79
2022/12/01 07:25:13;;;;;;;25.50;16.33;;;;;;;;;;5033674;28;20044;-79
2022/12/01 07:27:39;;;;;;;24.85;14.40;;;;;;;;;;5054584;28;20025;-79
2022/12/01 07:30:05;;;;;;;25.17;15.05;;;;;;;;;;5054898;28;20094;-79
2022/12/01 07:32:31;;;;;;;25.83;15.45;;;;;;;;;;5036716;28;20591;-79
2022/12/01 07:34:57;;;;;;;23.48;13.93;;;;;;;;;;5054777;28;20040;-79
2022/12/01 07:37:23;;;;;;;26.88;13.80;;;;;;;;;;5023482;28;20049;-80
2022/12/01 07:39:49;;;;;;;23.90;13.25;;;;;;;;;;5050953;28;20460;-79
2022/12/01 07:42:15;;;;;;;27.55;11.98;;;;;;;;;;5027107;28;20025;-80
2022/12/01 07:44:41;;;;;;;27.38;13.50;;;;;;;;;;5037704;28;20080;-79
2022/12/01 07:47:07;;;;;;;33.78;17.38;;;;;;;;;;5055808;28;20036;-80
2022/12/01 07:49:33;;;;;;;26.98;14.13;;;;;;;;;;5028738;28;20029;-80
2022/12/01 07:51:59;;;;;;;19.95;11.20;;;;;;;;;;5042865;28;20024;-80
2022/12/01 07:54:25;;;;;;;23.58;11.30;;;;;;;;;;5036968;28;20090;-80
2022/12/01 07:56:51;;;;;;;25.55;13.95;;;;;;;;;;5044791;28;20464;-80
2022/12/01 07:59:17;;;;;;;22.55;13.63;;;;;;;;;;5037404;28;20475;-80
2022/12/01 08:01:44;;;;;;;25.58;13.63;;;;;;;;;;5038213;28;20025;-80
2022/12/01 08:04:10;;;;;;;24.30;14.57;;;;;;;;;;5055333;28;20037;-79
2022/12/01 08:06:36;;;;;;;25.13;15.50;;;;;;;;;;5046952;28;20121;-79
2022/12/01 08:09:02;;;;;;;22.08;13.55;;;;;;;;;;5054820;28;20668;-80
2022/12/01 08:11:28;;;;;;;23.33;14.90;;;;;;;;;;5051623;28;20032;-79
2022/12/01 08:13:55;;;;;;;21.95;12.35;;;;;;;;;;5051870;28;20037;-80
2022/12/01 08:16:22;;;;;;;22.83;13.73;;;;;;;;;;5054115;28;20035;-79
2022/12/01 08:18:48;;;;;;;24.60;13.23;;;;;;;;;;5054043;28;20040;-80
2022/12/01 08:21:15;;;;;;;27.50;13.98;;;;;;;;;;5031450;28;20083;-80
2022/12/01 08:23:41;;;;;;;22.25;13.10;;;;;;;;;;5041906;28;20033;-80
2022/12/01 08:26:11;;;;;;;23.50;12.45;;;;;;;;;;5052280;28;20033;-80
2022/12/01 08:28:37;;;;;;;17.30;10.93;;;;;;;;;;5054626;28;20029;-80
2022/12/01 08:31:08;;;;;;;18.23;9.45;;;;;;;;;;5033567;28;20063;-80
2022/12/01 08:33:33;;;;;;;18.63;9.60;;;;;;;;;;5049852;28;20467;-80
2022/12/01 08:36:03;;;;;;;15.43;8.63;;;;;;;;;;5030240;28;20056;-80
2022/12/01 08:38:29;;;;;;;19.85;7.95;;;;;;;;;;5048432;28;20083;-80
2022/12/01 08:40:59;;;;;;;14.25;8.77;;;;;;;;;;5035473;28;20078;-80
2022/12/01 08:43:25;;;;;;;18.35;9.48;;;;;;;;;;5054274;28;20057;-80
2022/12/01 08:45:50;;;;;;;18.00;10.00;;;;;;;;;;5053356;28;20051;-80
2022/12/01 08:48:16;;;;;;;24.45;10.73;;;;;;;;;;5052346;28;20030;-79
2022/12/01 08:50:42;;;;;;;17.50;11.40;;;;;;;;;;5050848;28;20033;-80
2022/12/01 08:53:08;;;;;;;21.75;12.38;;;;;;;;;;5053435;28;20387;-80
2022/12/01 08:55:34;;;;;;;20.08;11.27;;;;;;;;;;5053840;28;20106;-79
2022/12/01 08:58:00;;;;;;;20.25;11.77;;;;;;;;;;5053588;28;20053;-80
2022/12/01 09:00:27;;;;;;;22.98;11.55;;;;;;;;;;5034937;28;20033;-80
2022/12/01 09:02:53;;;;;;;17.33;10.48;;;;;;;;;;5035460;28;20045;-80
2022/12/01 09:05:19;;;;;;;19.45;12.07;;;;;;;;;;5053039;28;20496;-80
2022/12/01 09:08:29;;;;;;;19.50;10.30;;;;;;;;;;5053150;28;20025;-80
2022/12/01 09:10:31;;;;;;;16.92;9.60;;;;;;;;;;5052609;28;20040;-79
2022/12/01 09:12:57;;;;;;;14.48;8.07;;;;;;;;;;5050556;28;20479;-80
2022/12/01 09:15:23;;;;;;;13.40;7.47;;;;;;;;;;5053195;28;20033;-79
2022/12/01 09:17:49;;;;;;;11.68;6.10;;;;;;;;;;5053281;28;20021;-79
2022/12/01 09:20:15;;;;;;;10.35;5.50;;;;;;;;;;5050692;28;20044;-80
2022/12/01 09:22:41;;;;;;;11.60;6.03;;;;;;;;;;5053339;28;20108;-80
2022/12/01 09:25:13;;;;;;;10.80;6.13;;;;;;;;;;5046863;28;20030;-79
2022/12/01 09:27:39;;;;;;;10.95;6.53;;;;;;;;;;5046837;28;20021;-80
2022/12/01 09:30:06;;;;;;;12.68;6.57;;;;;;;;;;5051497;28;20539;-80
2022/12/01 09:32:32;;;;;;;15.00;7.03;;;;;;;;;;5034329;28;20044;-80
2022/12/01 09:34:58;;;;;;;12.48;6.45;;;;;;;;;;5046570;28;20037;-80
2022/12/01 09:37:24;;;;;;;17.95;9.90;;;;;;;;;;5051515;28;20091;-80
2022/12/01 09:39:50;;;;;;;18.35;10.68;;;;;;;;;;5052701;28;20101;-80
2022/12/01 09:42:21;;;;;;;22.08;11.82;;;;;;;;;;5052072;28;20422;-79
2022/12/01 09:44:51;;;;;;;23.58;14.05;;;;;;;;;;5052286;28;20040;-80
2022/12/01 09:47:17;;;;;;;21.25;12.90;;;;;;;;;;5050358;28;20033;-80
2022/12/01 09:49:53;;;;;;;20.85;11.25;;;;;;;;;;5052395;28;20371;-79
2022/12/01 09:52:19;;;;;;;20.00;12.43;;;;;;;;;;5026739;28;20040;-79
2022/12/01 09:54:46;;;;;;;22.15;12.27;;;;;;;;;;5049718;28;20056;-79
2022/12/01 09:57:22;;;;;;;26.67;13.35;;;;;;;;;;5034258;28;20102;-79
2022/12/01 09:59:48;;;;;;;24.98;14.52;;;;;;;;;;5049762;28;20387;-79
2022/12/01 10:02:23;;;;;;;20.23;13.10;;;;;;;;;;5051517;28;20039;-80
2022/12/01 10:04:50;;;;;;;22.23;13.25;;;;;;;;;;5034555;28;20076;-80
2022/12/01 10:07:29;;;;;;;25.17;14.32;;;;;;;;;;5032184;28;20025;-79
2022/12/01 10:10:00;;;;;;;25.13;14.77;;;;;;;;;;5028955;28;20041;-79
2022/12/01 10:12:30;;;;;;;26.40;15.40;;;;;;;;;;5034940;28;20562;-79
2022/12/01 10:15:01;;;;;;;24.70;15.00;;;;;;;;;;5034601;28;20271;-79
2022/12/01 10:17:35;;;;;;;22.23;13.73;;;;;;;;;;5050553;28;20055;-79
2022/12/01 10:20:16;;;;;;;27.35;15.00;;;;;;;;;;5046630;28;20029;-79
2022/12/01 10:22:51;;;;;;;25.98;14.85;;;;;;;;;;5034789;28;20383;-79
2022/12/01 10:25:22;;;;;;;24.33;15.32;;;;;;;;;;5034478;28;20041;-80
2022/12/01 10:27:51;;;;;;;28.02;14.73;;;;;;;;;;5038219;28;20472;-79
2022/12/01 10:30:19;;;;;;;24.65;15.82;;;;;;;;;;5051376;28;20036;-80
2022/12/01 10:33:02;;;;;;;24.02;14.82;;;;;;;;;;5022198;28;20098;-79
2022/12/01 10:35:30;;;;;;;20.67;12.80;;;;;;;;;;5051111;28;20094;-80
2022/12/01 10:37:58;;;;;;;24.40;14.85;;;;;;;;;;5050455;28;20064;-79
2022/12/01 10:40:25;;;;;;;24.85;13.48;;;;;;;;;;5048328;28;20375;-79
2022/12/01 10:42:52;;;;;;;23.58;14.93;;;;;;;;;;5028141;28;20041;-79
2022/12/01 10:45:28;;;;;;;21.35;12.45;;;;;;;;;;5044308;28;20037;-79
2022/12/01 10:48:06;;;;;;;24.83;14.68;;;;;;;;;;5048514;28;20033;-79
2022/12/01 10:50:33;;;;;;;26.42;13.57;;;;;;;;;;5032868;28;20028;-79
2022/12/01 10:52:59;;;;;;;23.85;14.15;;;;;;;;;;5047679;28;20060;-80
2022/12/01 10:55:26;;;;;;;24.02;14.93;;;;;;;;;;5030810;28;20025;-79
2022/12/01 10:57:57;;;;;;;24.67;14.30;;;;;;;;;;5037895;28;20072;-79
2022/12/01 11:00:25;;;;;;;25.05;14.43;;;;;;;;;;5050336;28;20039;-79
2022/12/01 11:02:51;;;;;;;20.38;12.82;;;;;;;;;;5025143;28;20036;-80
2022/12/01 11:05:38;;;;;;;24.73;14.60;;;;;;;;;;5051638;28;20029;-80
2022/12/01 11:08:04;;;;;;;21.25;13.90;;;;;;;;;;5051921;28;20033;-80
2022/12/01 11:10:32;;;;;;;23.10;13.27;;;;;;;;;;5048679;28;20029;-79
2022/12/01 11:13:05;;;;;;;24.90;14.35;;;;;;;;;;5044648;28;20068;-80
2022/12/01 11:15:33;;;;;;;24.70;15.05;;;;;;;;;;5051056;28;20025;-79
2022/12/01 11:18:01;;;;;;;22.20;13.02;;;;;;;;;;5054051;28;20126;-79
2022/12/01 11:20:40;;;;;;;21.13;12.55;;;;;;;;;;5027294;28;20391;-79
2022/12/01 11:23:09;;;;;;;26.92;14.20;;;;;;;;;;5035486;28;20387;-79
2022/12/01 11:25:35;;;;;;;25.13;13.48;;;;;;;;;;5037059;28;20116;-80
2022/12/01 11:28:03;;;;;;;21.80;14.20;;;;;;;;;;5053741;28;20781;-80
2022/12/01 11:30:29;;;;;;;21.55;12.45;;;;;;;;;;5035935;28;20041;-80
2022/12/01 11:32:57;;;;;;;22.75;14.20;;;;;;;;;;5055283;28;20029;-80
2022/12/01 11:35:25;;;;;;;20.50;12.13;;;;;;;;;;5055265;28;20026;-79
2022/12/01 11:37:52;;;;;;;21.88;13.63;;;;;;;;;;5049125;28;20022;-79
2022/12/01 11:40:21;;;;;;;23.02;13.05;;;;;;;;;;5021139;28;20027;-80
2022/12/01 11:42:53;;;;;;;21.60;13.38;;;;;;;;;;5037098;28;20033;-80
2022/12/01 11:45:21;;;;;;;19.50;12.10;;;;;;;;;;5054869;28;20056;-80
2022/12/01 11:47:58;;;;;;;22.20;12.70;;;;;;;;;;5049350;28;20029;-80
2022/12/01 11:50:25;;;;;;;21.75;13.32;;;;;;;;;;5054709;28;20478;-80
2022/12/01 11:52:51;;;;;;;19.95;13.23;;;;;;;;;;5055536;28;20029;-80
2022/12/01 11:55:22;;;;;;;23.02;11.95;;;;;;;;;;5054921;28;20487;-80
2022/12/01 11:57:50;;;;;;;17.77;11.30;;;;;;;;;;5054788;28;20049;-80
2022/12/01 12:00:17;;;;;;;22.38;13.25;;;;;;;;;;5054885;28;20029;-80
2022/12/01 12:02:50;;;;;;;19.10;11.95;;;;;;;;;;5033066;28;20121;-79
2022/12/01 12:05:36;;;;;;;21.27;13.02;;;;;;;;;;5050667;28;20074;-80
2022/12/01 12:08:05;;;;;;;19.95;13.45;;;;;;;;;;5042704;28;20033;-80
2022/12/01 12:10:34;;;;;;;24.15;14.05;;;;;;;;;;5034901;28;20131;-80
2022/12/01 12:13:03;;;;;;;23.75;13.52;;;;;;;;;;5054556;28;20037;-80
2022/12/01 12:15:29;;;;;;;24.60;12.68;;;;;;;;;;5027258;28;20041;-80
2022/12/01 12:18:04;;;;;;;23.08;13.10;;;;;;;;;;5053816;28;20056;-79
2022/12/01 12:20:36;;;;;;;23.42;12.88;;;;;;;;;;5032579;28;20033;-80
2022/12/01 12:23:11;;;;;;;23.15;12.93;;;;;;;;;;5053881;28;20043;-80
2022/12/01 12:25:56;;;;;;;19.80;12.73;;;;;;;;;;5054395;28;20021;-80
2022/12/01 12:28:24;;;;;;;23.20;13.90;;;;;;;;;;5051635;28;20029;-80
2022/12/01 12:30:59;;;;;;;20.83;12.88;;;;;;;;;;5036100;28;20056;-80
2022/12/01 12:33:34;;;;;;;23.70;12.82;;;;;;;;;;5050942;28;20025;-80
2022/12/01 12:36:08;;;;;;;20.70;12.73;;;;;;;;;;5050710;28;20057;-80
2022/12/01 12:38:40;;;;;;;20.55;12.48;;;;;;;;;;5054048;28;20057;-80
2022/12/01 12:41:21;;;;;;;20.20;12.85;;;;;;;;;;5054065;28;20083;-80
2022/12/01 12:44:00;;;;;;;18.85;12.60;;;;;;;;;;5050672;28;20033;-80
2022/12/01 12:46:41;;;;;;;21.00;12.55;;;;;;;;;;5053678;28;20382;-80
2022/12/01 12:49:26;;;;;;;23.77;13.57;;;;;;;;;;5051252;28;20116;-80
2022/12/01 12:51:55;;;;;;;21.10;12.73;;;;;;;;;;5032388;28;20388;-79
2022/12/01 12:54:31;;;;;;;24.52;13.45;;;;;;;;;;5035455;28;20041;-80
2022/12/01 12:57:02;;;;;;;19.83;12.88;;;;;;;;;;5035375;28;20095;-80
2022/12/01 12:59:37;;;;;;;22.90;14.20;;;;;;;;;;5053261;28;20037;-80
2022/12/01 13:02:09;;;;;;;23.13;12.60;;;;;;;;;;5035782;28;20021;-80
2022/12/01 13:04:40;;;;;;;21.15;12.68;;;;;;;;;;5050923;28;20384;-79
2022/12/01 13:07:10;;;;;;;23.17;12.95;;;;;;;;;;5037552;28;20049;-80
2022/12/01 13:09:39;;;;;;;22.80;12.02;;;;;;;;;;5035266;28;20029;-80
2022/12/01 13:12:25;;;;;;;22.88;13.80;;;;;;;;;;5035226;28;20025;-79
2022/12/01 13:14:54;;;;;;;23.25;13.75;;;;;;;;;;5034883;28;20060;-80
2022/12/01 13:17:23;;;;;;;21.63;12.02;;;;;;;;;;5031993;28;20112;-80
2022/12/01 13:19:49;;;;;;;19.58;11.45;;;;;;;;;;5032150;28;20047;-79
2022/12/01 13:22:17;;;;;;;19.45;11.23;;;;;;;;;;5034276;28;20025;-79
2022/12/01 13:24:43;;;;;;;21.42;12.35;;;;;;;;;;5053654;28;20040;-80
2022/12/01 13:27:09;;;;;;;24.30;12.82;;;;;;;;;;5040659;28;20334;-80
2022/12/01 13:29:39;;;;;;;29.02;12.60;;;;;;;;;;5026984;28;20155;-80
2022/12/01 13:32:06;;;;;;;25.73;14.43;;;;;;;;;;5053122;28;20752;-80
2022/12/01 13:34:37;;;;;;;23.45;12.65;;;;;;;;;;5034649;28;20061;-80
2022/12/01 13:37:03;;;;;;;19.92;12.73;;;;;;;;;;5051330;28;20036;-79
2022/12/01 13:39:34;;;;;;;19.67;12.57;;;;;;;;;;5032881;28;20033;-79
2022/12/01 13:42:07;;;;;;;18.90;11.60;;;;;;;;;;5047337;28;20034;-80
2022/12/01 13:44:38;;;;;;;23.17;12.98;;;;;;;;;;5045939;28;20055;-79
2022/12/01 13:47:24;;;;;;;20.85;12.20;;;;;;;;;;5053026;28;20040;-79
2022/12/01 13:49:51;;;;;;;20.98;12.35;;;;;;;;;;5012518;28;20048;-79
2022/12/01 13:52:28;;;;;;;21.98;11.98;;;;;;;;;;5045875;28;20104;-80
2022/12/01 13:55:09;;;;;;;19.80;13.13;;;;;;;;;;5053052;28;20119;-79
2022/12/01 13:57:35;;;;;;;19.40;11.15;;;;;;;;;;5022564;28;20052;-79
2022/12/01 14:00:04;;;;;;;21.48;12.18;;;;;;;;;;5052822;28;20518;-80
2022/12/01 14:02:32;;;;;;;20.13;11.68;;;;;;;;;;5053035;28;20056;-80
2022/12/01 14:05:17;;;;;;;17.77;10.82;;;;;;;;;;5052356;28;20091;-80
2022/12/01 14:07:43;;;;;;;25.05;13.55;;;;;;;;;;5034681;28;20021;-79
2022/12/01 14:10:21;;;;;;;19.42;12.07;;;;;;;;;;5052909;28;20052;-79
2022/12/01 14:12:48;;;;;;;18.85;11.95;;;;;;;;;;5051976;28;20025;-79
2022/12/01 14:15:29;;;;;;;24.65;12.68;;;;;;;;;;5052492;28;20045;-80
2022/12/01 14:18:00;;;;;;;21.30;11.85;;;;;;;;;;5052656;28;20025;-79
2022/12/01 14:20:26;;;;;;;22.27;11.35;;;;;;;;;;5052438;28;20033;-79
2022/12/01 14:23:19;;;;;;;21.77;13.35;;;;;;;;;;5052749;28;20452;-79
2022/12/01 14:26:05;;;;;;;21.90;13.07;;;;;;;;;;5025110;28;20045;-79
2022/12/01 14:28:50;;;;;;;18.10;12.10;;;;;;;;;;5019803;28;20037;-80
2022/12/01 14:31:16;;;;;;;20.10;12.00;;;;;;;;;;5034695;28;20067;-80
2022/12/01 14:33:44;;;;;;;19.23;12.27;;;;;;;;;;5034713;28;20060;-79